Terminal Aerodrome Forecast
Issued by NWS

Home | Current Version | Previous Version | Text Only | Print | Product List | Glossary On
Versions: 1 2 3 4 5 6 7 8 9 10 11 12 13 14 15 16 17 18 19 20 21 22 23 24 25 26 27 28 29 30 31 32 33 34 35 36 37 38 39 40 41
000
FTUS43 KGRB 221100 RRA
TAFRHI
TAF
KRHI 221148Z 2212/2312 15009G15KT 4SM BR SCT004 OVC010
      TEMPO 2212/2216 2SM -FZDZSN BR OVC004
     FM221600 13008KT 5SM BR SCT006 OVC012
     FM222000 11008KT 5SM BR OVC010
      TEMPO 2222/2302 3SM -SN
     FM230200 09007KT 2SM -SN SCT006 OVC010
     FM230400 07009KT 1SM -SN BKN006 OVC012 WS012/09035KT=

USA.gov is the U.S. government's official web portal to all federal, state and local government web resources and services.